Time;durP1;ratioP1;P1;durP2;ratioP2;P2;SDS_P1;SDS_P2;PMS_P1;PMS_P2;Temp;Humidity;BMP_temperature;BMP_pressure;BME280_temperature;BME280_humidity;BME280_pressure;Samples;Min_cycle;Max_cycle;Signal;HPM_P1;HPM_P2
2022/04/04 00:00:19;;;;;;;;;;;;;;;;;;2075792;28;19918;-87
2022/04/04 00:01:19;;;;;;;;;;;;;;;;;;2075577;28;20000;-87
2022/04/04 00:02:19;;;;;;;;;;;;;;;;;;2075631;28;20366;-87
2022/04/04 00:03:20;;;;;;;;;;;;;;;;;;2084147;28;19917;-87
2022/04/04 00:04:20;;;;;;;;;;;;;;;;;;2084311;28;19917;-86
2022/04/04 00:05:21;;;;;;;;;;;;;;;;;;2084301;28;20277;-87
2022/04/04 00:06:21;;;;;;;;;;;;;;;;;;2084155;28;19956;-86
2022/04/04 00:07:21;;;;;;;;;;;;;;;;;;2084638;28;20208;-86
2022/04/04 00:08:22;;;;;;;;;;;;;;;;;;2075577;28;20255;-86
2022/04/04 00:09:22;;;;;;;;;;;;;;;;;;2075678;28;20544;-86
2022/04/04 00:10:22;;;;;;;;;;;;;;;;;;2084119;28;19920;-85
2022/04/04 00:11:23;;;;;;;;;;;;;;;;;;2084290;28;19913;-86
2022/04/04 00:12:23;;;;;;;;;;;;;;;;;;2084211;28;19941;-88
2022/04/04 00:13:24;;;;;;;;;;;;;;;;;;2075618;28;20429;-88
2022/04/04 00:14:24;;;;;;;;;;;;;;;;;;2075605;28;20322;-88
2022/04/04 00:15:24;;;;;;;;;;;;;;;;;;2075474;28;19921;-88
2022/04/04 00:16:25;;;;;;;;;;;;;;;;;;2075533;28;19918;-88
2022/04/04 00:17:25;;;;;;;;;;;;;;;;;;2075505;28;19963;-87
2022/04/04 00:18:25;;;;;;;;;;;;;;;;;;2075594;28;20294;-88
2022/04/04 00:19:26;;;;;;;;;;;;;;;;;;2075351;28;20424;-87
2022/04/04 00:20:29;;;;;;;;;;;;;;;;;;2067285;28;19914;-87
2022/04/04 00:21:29;;;;;;;;;;;;;;;;;;2067588;28;20371;-88
2022/04/04 00:22:30;;;;;;;;;;;;;;;;;;2067289;28;19914;-88
2022/04/04 00:23:30;;;;;;;;;;;;;;;;;;2075585;28;20406;-88
2022/04/04 00:24:31;;;;;;;;;;;;;;;;;;2084066;28;19913;-88
2022/04/04 00:25:31;;;;;;;;;;;;;;;;;;2084214;28;19913;-88
2022/04/04 00:26:32;;;;;;;;;;;;;;;;;;2075195;28;19913;-88
2022/04/04 00:27:32;;;;;;;;;;;;;;;;;;2078327;28;20454;-89
2022/04/04 00:28:32;;;;;;;;;;;;;;;;;;2075485;28;20565;-89
2022/04/04 00:29:35;;;;;;;;;;;;;;;;;;2075514;28;19955;-88
2022/04/04 00:30:36;;;;;;;;;;;;;;;;;;2084180;28;19913;-88
2022/04/04 00:31:37;;;;;;;;;;;;;;;;;;2075570;28;19914;-88
2022/04/04 00:32:38;;;;;;;;;;;;;;;;;;2067257;28;20367;-88
2022/04/04 00:33:38;;;;;;;;;;;;;;;;;;2075441;28;20366;-88
2022/04/04 00:34:38;;;;;;;;;;;;;;;;;;2084153;28;19957;-87
2022/04/04 00:35:39;;;;;;;;;;;;;;;;;;2083952;28;20408;-87
2022/04/04 00:36:40;;;;;;;;;;;;;;;;;;2075438;28;19956;-88
2022/04/04 00:37:43;;;;;;;;;;;;;;;;;;2075477;28;19918;-88
2022/04/04 00:38:46;;;;;;;;;;;;;;;;;;2075403;28;19913;-88
2022/04/04 00:39:48;;;;;;;;;;;;;;;;;;2075670;28;20012;-88
2022/04/04 00:40:49;;;;;;;;;;;;;;;;;;2075342;28;20441;-88
2022/04/04 00:41:49;;;;;;;;;;;;;;;;;;2075458;28;19917;-88
2022/04/04 00:42:50;;;;;;;;;;;;;;;;;;2084007;28;20329;-88
2022/04/04 00:43:53;;;;;;;;;;;;;;;;;;2084026;28;19920;-88
2022/04/04 00:44:53;;;;;;;;;;;;;;;;;;2084120;28;19963;-88
2022/04/04 00:45:54;;;;;;;;;;;;;;;;;;2083972;28;19906;-89
2022/04/04 00:46:54;;;;;;;;;;;;;;;;;;2084025;28;19927;-87
2022/04/04 00:47:54;;;;;;;;;;;;;;;;;;2075331;28;19913;-88
2022/04/04 00:48:55;;;;;;;;;;;;;;;;;;2067255;28;20081;-88
2022/04/04 00:49:56;;;;;;;;;;;;;;;;;;2073786;28;20402;-89
2022/04/04 00:50:56;;;;;;;;;;;;;;;;;;2082803;28;20000;-88
2022/04/04 00:51:56;;;;;;;;;;;;;;;;;;2074061;28;19913;-88
2022/04/04 00:52:57;;;;;;;;;;;;;;;;;;2074053;28;19918;-87
2022/04/04 00:53:57;;;;;;;;;;;;;;;;;;2073896;28;19948;-88
2022/04/04 00:54:57;;;;;;;;;;;;;;;;;;2065966;28;20430;-88
2022/04/04 00:55:58;;;;;;;;;;;;;;;;;;2073895;28;20339;-88
2022/04/04 00:57:03;;;;;;;;;;;;;;;;;;2082596;28;19982;-88
2022/04/04 00:58:04;;;;;;;;;;;;;;;;;;2074009;28;20066;-88
2022/04/04 00:59:10;;;;;;;;;;;;;;;;;;2074122;28;19918;-88
2022/04/04 01:00:11;;;;;;;;;;;;;;;;;;2082692;28;20346;-88
2022/04/04 01:01:11;;;;;;;;;;;;;;;;;;2082738;28;19987;-88
2022/04/04 01:02:11;;;;;;;;;;;;;;;;;;2082564;28;19934;-88
2022/04/04 01:03:12;;;;;;;;;;;;;;;;;;2082700;28;19913;-88
2022/04/04 01:04:13;;;;;;;;;;;;;;;;;;2082591;28;19917;-88
2022/04/04 01:05:13;;;;;;;;;;;;;;;;;;2074021;28;20048;-87
2022/04/04 01:06:13;;;;;;;;;;;;;;;;;;2073954;28;20393;-88
2022/04/04 01:07:13;;;;;;;;;;;;;;;;;;2082681;28;19925;-88
2022/04/04 01:08:15;;;;;;;;;;;;;;;;;;2082824;28;20309;-86
2022/04/04 01:09:15;;;;;;;;;;;;;;;;;;2082999;28;19913;-86
2022/04/04 01:10:15;;;;;;;;;;;;;;;;;;2082833;28;20342;-87
2022/04/04 01:11:16;;;;;;;;;;;;;;;;;;2082644;28;19914;-87
2022/04/04 01:12:19;;;;;;;;;;;;;;;;;;2082731;28;19936;-87
2022/04/04 01:13:19;;;;;;;;;;;;;;;;;;2082547;28;20059;-88
2022/04/04 01:14:19;;;;;;;;;;;;;;;;;;2082589;28;19913;-87
2022/04/04 01:15:20;;;;;;;;;;;;;;;;;;2082417;28;19978;-88
2022/04/04 01:16:21;;;;;;;;;;;;;;;;;;2073843;28;19928;-87
2022/04/04 01:17:21;;;;;;;;;;;;;;;;;;2074079;28;20354;-88
2022/04/04 01:18:22;;;;;;;;;;;;;;;;;;2077895;28;20294;-87
2022/04/04 01:19:25;;;;;;;;;;;;;;;;;;2079230;28;19932;-87
2022/04/04 01:20:25;;;;;;;;;;;;;;;;;;2087445;28;19935;-86
2022/04/04 01:21:25;;;;;;;;;;;;;;;;;;2084093;28;19975;-87
2022/04/04 01:22:26;;;;;;;;;;;;;;;;;;2074016;28;19953;-88
2022/04/04 01:23:34;;;;;;;;;;;;;;;;;;2074386;28;19928;-88
2022/04/04 01:24:35;;;;;;;;;;;;;;;;;;2066006;28;19913;-88
2022/04/04 01:25:37;;;;;;;;;;;;;;;;;;2057787;28;20359;-88
2022/04/04 01:26:44;;;;;;;;;;;;;;;;;;2066008;28;19918;-87
2022/04/04 01:27:45;;;;;;;;;;;;;;;;;;2074848;28;19936;-88
2022/04/04 01:28:46;;;;;;;;;;;;;;;;;;2082710;28;19920;-88
2022/04/04 01:29:46;;;;;;;;;;;;;;;;;;2082501;28;19927;-87
2022/04/04 01:30:51;;;;;;;;;;;;;;;;;;2082336;28;20140;-87
2022/04/04 01:31:52;;;;;;;;;;;;;;;;;;2082373;28;19952;-87
2022/04/04 01:32:53;;;;;;;;;;;;;;;;;;2082547;28;19913;-88
2022/04/04 01:33:53;;;;;;;;;;;;;;;;;;2082239;28;20301;-88
2022/04/04 01:34:53;;;;;;;;;;;;;;;;;;2082505;28;19983;-87
2022/04/04 01:35:57;;;;;;;;;;;;;;;;;;2082264;28;19920;-88
2022/04/04 01:36:57;;;;;;;;;;;;;;;;;;2082569;28;19921;-88
2022/04/04 01:37:58;;;;;;;;;;;;;;;;;;2082268;28;19913;-88
2022/04/04 01:38:58;;;;;;;;;;;;;;;;;;2082375;28;19943;-88
2022/04/04 01:40:01;;;;;;;;;;;;;;;;;;2082322;28;20392;-88
2022/04/04 01:41:01;;;;;;;;;;;;;;;;;;2082426;28;19913;-88
2022/04/04 01:42:02;;;;;;;;;;;;;;;;;;2073598;28;19963;-88
2022/04/04 01:43:02;;;;;;;;;;;;;;;;;;2073718;28;20017;-87
2022/04/04 01:44:03;;;;;;;;;;;;;;;;;;2082312;28;19956;-88
2022/04/04 01:45:11;;;;;;;;;;;;;;;;;;2082355;28;19913;-88
2022/04/04 01:46:24;;;;;;;;;;;;;;;;;;2082737;28;20003;-88
2022/04/04 01:47:24;;;;;;;;;;;;;;;;;;2082451;28;19909;-88
2022/04/04 01:48:24;;;;;;;;;;;;;;;;;;2082242;28;20343;-87
2022/04/04 01:49:24;;;;;;;;;;;;;;;;;;2082373;28;20005;-88
2022/04/04 01:50:25;;;;;;;;;;;;;;;;;;2082297;28;20386;-87
2022/04/04 01:51:26;;;;;;;;;;;;;;;;;;2082479;28;20539;-86
2022/04/04 01:52:26;;;;;;;;;;;;;;;;;;2082332;28;19948;-87
2022/04/04 01:53:26;;;;;;;;;;;;;;;;;;2073624;28;19913;-87
2022/04/04 01:54:27;;;;;;;;;;;;;;;;;;2073719;28;19921;-88
2022/04/04 01:55:27;;;;;;;;;;;;;;;;;;2082199;28;20370;-87
2022/04/04 01:56:28;;;;;;;;;;;;;;;;;;2082195;28;19921;-87
2022/04/04 01:57:28;;;;;;;;;;;;;;;;;;2082316;28;19928;-88
2022/04/04 01:58:28;;;;;;;;;;;;;;;;;;2082214;28;19940;-89
2022/04/04 01:59:29;;;;;;;;;;;;;;;;;;2082213;28;19941;-88
2022/04/04 02:00:30;;;;;;;;;;;;;;;;;;2082224;28;20365;-87
2022/04/04 02:01:34;;;;;;;;;;;;;;;;;;2081596;28;19918;-89
2022/04/04 02:02:34;;;;;;;;;;;;;;;;;;2081652;28;20323;-88
2022/04/04 02:03:36;;;;;;;;;;;;;;;;;;2082203;28;19924;-87
2022/04/04 02:04:36;;;;;;;;;;;;;;;;;;2082098;28;20366;-88
2022/04/04 02:05:36;;;;;;;;;;;;;;;;;;2082116;28;19924;-88
2022/04/04 02:06:37;;;;;;;;;;;;;;;;;;2082215;28;19913;-88
2022/04/04 02:07:38;;;;;;;;;;;;;;;;;;2073447;28;19922;-88
2022/04/04 02:08:38;;;;;;;;;;;;;;;;;;2065538;28;20016;-88
2022/04/04 02:09:38;;;;;;;;;;;;;;;;;;2073532;28;19917;-89
2022/04/04 02:10:39;;;;;;;;;;;;;;;;;;2082109;28;20286;-88
2022/04/04 02:11:40;;;;;;;;;;;;;;;;;;2081983;28;19927;-88
2022/04/04 02:12:40;;;;;;;;;;;;;;;;;;2082105;28;19979;-88
2022/04/04 02:13:41;;;;;;;;;;;;;;;;;;2073535;28;19920;-88
2022/04/04 02:14:41;;;;;;;;;;;;;;;;;;2073433;28;20432;-88
2022/04/04 02:15:42;;;;;;;;;;;;;;;;;;2073015;28;20402;-86
2022/04/04 02:16:43;;;;;;;;;;;;;;;;;;2073361;28;19925;-88
2022/04/04 02:17:43;;;;;;;;;;;;;;;;;;2073917;28;19979;-88
2022/04/04 02:18:43;;;;;;;;;;;;;;;;;;2082235;28;19983;-89
2022/04/04 02:19:47;;;;;;;;;;;;;;;;;;2082142;28;19979;-88
2022/04/04 02:20:47;;;;;;;;;;;;;;;;;;2082111;28;20677;-88
2022/04/04 02:21:50;;;;;;;;;;;;;;;;;;2073384;28;19924;-88
2022/04/04 02:22:50;;;;;;;;;;;;;;;;;;2065591;28;19914;-88
2022/04/04 02:23:54;;;;;;;;;;;;;;;;;;2073660;28;19994;-88
2022/04/04 02:24:54;;;;;;;;;;;;;;;;;;2082564;28;19963;-87
2022/04/04 02:25:55;;;;;;;;;;;;;;;;;;2081864;28;20381;-88
2022/04/04 02:26:55;;;;;;;;;;;;;;;;;;2073113;28;19983;-86
2022/04/04 02:27:56;;;;;;;;;;;;;;;;;;2073547;28;20347;-87
2022/04/04 02:28:58;;;;;;;;;;;;;;;;;;2073384;28;19914;-86
2022/04/04 02:29:58;;;;;;;;;;;;;;;;;;2073787;28;20314;-86
2022/04/04 02:30:59;;;;;;;;;;;;;;;;;;2082075;28;19917;-86
2022/04/04 02:32:02;;;;;;;;;;;;;;;;;;2073260;28;19924;-84
2022/04/04 02:33:02;;;;;;;;;;;;;;;;;;2073861;28;19913;-85
2022/04/04 02:34:05;;;;;;;;;;;;;;;;;;2081954;28;19917;-86
2022/04/04 02:35:06;;;;;;;;;;;;;;;;;;2073298;28;19913;-87
2022/04/04 02:36:08;;;;;;;;;;;;;;;;;;2073168;28;20366;-86
2022/04/04 02:37:09;;;;;;;;;;;;;;;;;;2073315;28;19917;-86
2022/04/04 02:38:09;;;;;;;;;;;;;;;;;;2065225;28;20286;-87
2022/04/04 02:39:10;;;;;;;;;;;;;;;;;;2073486;28;19960;-87
2022/04/04 02:40:13;;;;;;;;;;;;;;;;;;2082028;28;19928;-86
2022/04/04 02:41:13;;;;;;;;;;;;;;;;;;2073251;28;19957;-89
2022/04/04 02:42:14;;;;;;;;;;;;;;;;;;2073303;28;19913;-88
2022/04/04 02:43:17;;;;;;;;;;;;;;;;;;2081901;28;19921;-86
2022/04/04 02:44:17;;;;;;;;;;;;;;;;;;2082007;28;19949;-87
2022/04/04 02:45:20;;;;;;;;;;;;;;;;;;2081880;28;19936;-87
2022/04/04 02:46:21;;;;;;;;;;;;;;;;;;2073120;28;20009;-86
2022/04/04 02:47:21;;;;;;;;;;;;;;;;;;2065254;28;19937;-87
2022/04/04 02:48:21;;;;;;;;;;;;;;;;;;2073281;28;19913;-87
2022/04/04 02:49:23;;;;;;;;;;;;;;;;;;2081992;28;19920;-88
2022/04/04 02:50:24;;;;;;;;;;;;;;;;;;2082006;28;19917;-85
2022/04/04 02:51:24;;;;;;;;;;;;;;;;;;2081856;28;19917;-87
2022/04/04 02:52:24;;;;;;;;;;;;;;;;;;2082042;28;19913;-86
2022/04/04 02:53:25;;;;;;;;;;;;;;;;;;2081965;28;19982;-87
2022/04/04 02:54:25;;;;;;;;;;;;;;;;;;2081819;28;19944;-87
2022/04/04 02:56:44;;;;;;;;;;;;;;;;;;2081847;28;19956;-85
2022/04/04 02:57:45;;;;;;;;;;;;;;;;;;2081700;28;19913;-88
2022/04/04 02:58:45;;;;;;;;;;;;;;;;;;2081964;28;19914;-88
2022/04/04 02:59:45;;;;;;;;;;;;;;;;;;2081794;28;19963;-88
2022/04/04 03:00:45;;;;;;;;;;;;;;;;;;2081968;28;19913;-86
2022/04/04 03:01:48;;;;;;;;;;;;;;;;;;2081733;28;19987;-87
2022/04/04 03:02:49;;;;;;;;;;;;;;;;;;2082148;28;19932;-86
2022/04/04 03:03:49;;;;;;;;;;;;;;;;;;2081855;28;19999;-87
2022/04/04 03:04:57;;;;;;;;;;;;;;;;;;2081989;28;19913;-86
2022/04/04 03:05:57;;;;;;;;;;;;;;;;;;2081668;28;19924;-87
2022/04/04 03:07:00;;;;;;;;;;;;;;;;;;2073053;28;20378;-86
2022/04/04 03:08:01;;;;;;;;;;;;;;;;;;2065311;28;19914;-87
2022/04/04 03:09:01;;;;;;;;;;;;;;;;;;2073202;28;19921;-87
2022/04/04 03:10:02;;;;;;;;;;;;;;;;;;2081614;28;19924;-86
2022/04/04 03:11:03;;;;;;;;;;;;;;;;;;2081692;28;19913;-86
2022/04/04 03:12:04;;;;;;;;;;;;;;;;;;2081715;28;20003;-85
2022/04/04 03:13:05;;;;;;;;;;;;;;;;;;2081342;28;20023;-86
2022/04/04 03:14:05;;;;;;;;;;;;;;;;;;2081724;28;19913;-86
2022/04/04 03:15:06;;;;;;;;;;;;;;;;;;2081751;28;19937;-87
2022/04/04 03:16:06;;;;;;;;;;;;;;;;;;2072701;28;19913;-86
2022/04/04 03:17:06;;;;;;;;;;;;;;;;;;2073321;28;19913;-88
2022/04/04 03:18:07;;;;;;;;;;;;;;;;;;2081611;28;19924;-87
2022/04/04 03:19:10;;;;;;;;;;;;;;;;;;2081798;28;19947;-87
2022/04/04 03:20:13;;;;;;;;;;;;;;;;;;2073397;28;19917;-87
2022/04/04 03:21:14;;;;;;;;;;;;;;;;;;2073977;28;19913;-87
2022/04/04 03:22:17;;;;;;;;;;;;;;;;;;2079152;28;19914;-87
2022/04/04 03:23:17;;;;;;;;;;;;;;;;;;2083704;28;20467;-87
2022/04/04 03:24:17;;;;;;;;;;;;;;;;;;2092077;28;19917;-88
2022/04/04 03:25:18;;;;;;;;;;;;;;;;;;2077071;28;19918;-88
2022/04/04 03:26:18;;;;;;;;;;;;;;;;;;2064848;28;19926;-87
2022/04/04 03:27:18;;;;;;;;;;;;;;;;;;2073047;28;19917;-86
2022/04/04 03:28:19;;;;;;;;;;;;;;;;;;2073255;28;20401;-86
2022/04/04 03:29:19;;;;;;;;;;;;;;;;;;2073130;28;20446;-86
2022/04/04 03:30:20;;;;;;;;;;;;;;;;;;2081592;28;19919;-87
2022/04/04 03:31:23;;;;;;;;;;;;;;;;;;2072863;28;20437;-87
2022/04/04 03:32:23;;;;;;;;;;;;;;;;;;2073171;28;20004;-87
2022/04/04 03:33:24;;;;;;;;;;;;;;;;;;2081685;28;19913;-88
2022/04/04 03:34:24;;;;;;;;;;;;;;;;;;2072982;28;20392;-88
2022/04/04 03:35:26;;;;;;;;;;;;;;;;;;2064712;28;19914;-88
2022/04/04 03:36:26;;;;;;;;;;;;;;;;;;2073157;28;19917;-87
2022/04/04 03:37:27;;;;;;;;;;;;;;;;;;2081656;28;19956;-87
2022/04/04 03:38:28;;;;;;;;;;;;;;;;;;2081585;28;20392;-87
2022/04/04 03:39:28;;;;;;;;;;;;;;;;;;2081560;28;19924;-87
2022/04/04 03:40:28;;;;;;;;;;;;;;;;;;2072685;28;19917;-87
2022/04/04 03:41:29;;;;;;;;;;;;;;;;;;2064741;28;19914;-86
2022/04/04 03:42:29;;;;;;;;;;;;;;;;;;2072841;28;20343;-87
2022/04/04 03:43:30;;;;;;;;;;;;;;;;;;2081648;28;19924;-87
2022/04/04 03:44:30;;;;;;;;;;;;;;;;;;2073050;28;19913;-89
2022/04/04 03:45:30;;;;;;;;;;;;;;;;;;2064739;28;19949;-88
2022/04/04 03:46:31;;;;;;;;;;;;;;;;;;2064803;28;19914;-86
2022/04/04 03:47:31;;;;;;;;;;;;;;;;;;2072984;28;19965;-87
2022/04/04 03:48:32;;;;;;;;;;;;;;;;;;2081871;28;19913;-86
2022/04/04 03:49:32;;;;;;;;;;;;;;;;;;2081735;28;19913;-86
2022/04/04 03:50:32;;;;;;;;;;;;;;;;;;2073566;28;19914;-88
2022/04/04 03:51:33;;;;;;;;;;;;;;;;;;2065046;28;20030;-86
2022/04/04 03:52:34;;;;;;;;;;;;;;;;;;2073003;28;19913;-87
2022/04/04 03:53:34;;;;;;;;;;;;;;;;;;2081701;28;19920;-87
2022/04/04 03:54:35;;;;;;;;;;;;;;;;;;2081602;28;19913;-87
2022/04/04 03:55:39;;;;;;;;;;;;;;;;;;2081786;28;19963;-89
2022/04/04 03:56:39;;;;;;;;;;;;;;;;;;2082078;28;20071;-89
2022/04/04 03:57:40;;;;;;;;;;;;;;;;;;2081990;28;19975;-89
2022/04/04 03:58:40;;;;;;;;;;;;;;;;;;2081881;28;19951;-88
2022/04/04 03:59:41;;;;;;;;;;;;;;;;;;2082179;28;19960;-87
2022/04/04 04:00:41;;;;;;;;;;;;;;;;;;2081652;28;19913;-88
2022/04/04 04:01:41;;;;;;;;;;;;;;;;;;2081543;28;20358;-89
2022/04/04 04:02:42;;;;;;;;;;;;;;;;;;2082224;28;20298;-88
2022/04/04 04:03:42;;;;;;;;;;;;;;;;;;2073008;28;19913;-89
2022/04/04 04:04:44;;;;;;;;;;;;;;;;;;2064795;28;19918;-89
2022/04/04 04:05:45;;;;;;;;;;;;;;;;;;2073258;28;19957;-88
2022/04/04 04:06:45;;;;;;;;;;;;;;;;;;2081495;28;20377;-88
2022/04/04 04:07:46;;;;;;;;;;;;;;;;;;2081598;28;19958;-87
2022/04/04 04:08:49;;;;;;;;;;;;;;;;;;2081491;28;20008;-88
2022/04/04 04:09:52;;;;;;;;;;;;;;;;;;2081526;28;19944;-88
2022/04/04 04:10:55;;;;;;;;;;;;;;;;;;2081199;28;20416;-89
2022/04/04 04:11:58;;;;;;;;;;;;;;;;;;2081884;28;19913;-87
2022/04/04 04:13:01;;;;;;;;;;;;;;;;;;2072649;28;19917;-87
2022/04/04 04:14:08;;;;;;;;;;;;;;;;;;2073223;28;20406;-87
2022/04/04 04:15:17;;;;;;;;;;;;;;;;;;2072746;28;19990;-87
2022/04/04 04:16:26;;;;;;;;;;;;;;;;;;2074006;28;19929;-88
2022/04/04 04:17:27;;;;;;;;;;;;;;;;;;2072895;28;19981;-87
2022/04/04 04:18:27;;;;;;;;;;;;;;;;;;2072897;28;19924;-88
2022/04/04 04:20:47;;;;;;;;;;;;;;;;;;2081435;28;19913;-86
2022/04/04 04:21:47;;;;;;;;;;;;;;;;;;2081217;28;19917;-87
2022/04/04 04:22:52;;;;;;;;;;;;;;;;;;2072731;28;19925;-89
2022/04/04 04:23:56;;;;;;;;;;;;;;;;;;2065099;28;20284;-88
2022/04/04 04:24:56;;;;;;;;;;;;;;;;;;2073174;28;19924;-88
2022/04/04 04:26:06;;;;;;;;;;;;;;;;;;2082889;28;19936;-85
2022/04/04 04:27:07;;;;;;;;;;;;;;;;;;2083820;28;19924;-89
2022/04/04 04:28:11;;;;;;;;;;;;;;;;;;2083106;28;20373;-89
2022/04/04 04:29:17;;;;;;;;;;;;;;;;;;2083044;28;20432;-89
2022/04/04 04:30:17;;;;;;;;;;;;;;;;;;2083244;28;19917;-89
2022/04/04 04:31:18;;;;;;;;;;;;;;;;;;2074163;28;19913;-88
2022/04/04 04:32:21;;;;;;;;;;;;;;;;;;2074443;28;20358;-88
2022/04/04 04:33:29;;;;;;;;;;;;;;;;;;2074157;28;19913;-89
2022/04/04 04:34:32;;;;;;;;;;;;;;;;;;2078040;28;20297;-90
2022/04/04 04:35:37;;;;;;;;;;;;;;;;;;2073895;28;20283;-89
2022/04/04 04:36:39;;;;;;;;;;;;;;;;;;2074767;28;19921;-89
2022/04/04 04:37:47;;;;;;;;;;;;;;;;;;2074104;28;20453;-89
2022/04/04 04:38:50;;;;;;;;;;;;;;;;;;2077882;28;20060;-89
2022/04/04 04:39:52;;;;;;;;;;;;;;;;;;2083210;28;20350;-88
2022/04/04 04:40:53;;;;;;;;;;;;;;;;;;2083596;28;19913;-90
2022/04/04 04:41:55;;;;;;;;;;;;;;;;;;2074766;28;20373;-87
2022/04/04 04:42:56;;;;;;;;;;;;;;;;;;2066174;28;19918;-88
2022/04/04 04:44:03;;;;;;;;;;;;;;;;;;2066168;28;19922;-89
2022/04/04 04:45:04;;;;;;;;;;;;;;;;;;2067384;28;19945;-88
2022/04/04 04:46:12;;;;;;;;;;;;;;;;;;2074240;28;19909;-87
2022/04/04 04:47:18;;;;;;;;;;;;;;;;;;2085622;28;19913;-88
2022/04/04 04:48:19;;;;;;;;;;;;;;;;;;2073929;28;20000;-87
2022/04/04 04:49:22;;;;;;;;;;;;;;;;;;2066060;28;19914;-87
2022/04/04 04:50:23;;;;;;;;;;;;;;;;;;2065979;28;20387;-86
2022/04/04 04:51:24;;;;;;;;;;;;;;;;;;2074066;28;19957;-87
2022/04/04 04:52:25;;;;;;;;;;;;;;;;;;2082787;28;19913;-89
2022/04/04 04:53:25;;;;;;;;;;;;;;;;;;2082747;28;20000;-78
2022/04/04 04:54:26;;;;;;;;;;;;;;;;;;2073386;28;20393;-78
2022/04/04 04:55:26;;;;;;;;;;;;;;;;;;2073257;28;19917;-78
2022/04/04 04:56:27;;;;;;;;;;;;;;;;;;2074241;28;20370;-78
2022/04/04 04:57:28;;;;;;;;;;;;;;;;;;2074311;28;19979;-78
2022/04/04 04:58:28;;;;;;;;;;;;;;;;;;2065769;28;19961;-78
2022/04/04 04:59:28;;;;;;;;;;;;;;;;;;2057795;28;19914;-77
2022/04/04 05:00:29;;;;;;;;;;;;;;;;;;2057746;28;19914;-78
2022/04/04 05:01:29;;;;;;;;;;;;;;;;;;2065961;28;19914;-76
2022/04/04 05:02:30;;;;;;;;;;;;;;;;;;2076757;28;19924;-76
2022/04/04 05:03:31;;;;;;;;;;;;;;;;;;2080204;28;19918;-77
2022/04/04 05:04:31;;;;;;;;;;;;;;;;;;2078654;28;19972;-76
2022/04/04 05:05:31;;;;;;;;;;;;;;;;;;2073640;28;20466;-78
2022/04/04 05:06:34;;;;;;;;;;;;;;;;;;2073832;28;20502;-77
2022/04/04 05:07:38;;;;;;;;;;;;;;;;;;2074214;28;20375;-78
2022/04/04 05:08:41;;;;;;;;;;;;;;;;;;2081746;28;19921;-78
2022/04/04 05:09:46;;;;;;;;;;;;;;;;;;2077967;28;19933;-79
2022/04/04 05:10:54;;;;;;;;;;;;;;;;;;2076711;28;20354;-78
2022/04/04 05:14:15;;;;;;;;;;;;;;;;;;;;;
2022/04/04 05:15:48;;;;;;;;;;;;;;;;;;;;;
2022/04/04 05:17:22;;;;;;;;;;;;;;;;;;2016855;29;20281;-79
2022/04/04 05:20:30;;;;;;;;;;;;;;;;;;2024832;29;20001;-79
2022/04/04 05:24:42;;;;;;;;;;;;;;;;;;2016872;29;19915;-79
2022/04/04 05:25:45;;;;;;;;;;;;;;;;;;2037497;29;19962;-79
2022/04/04 05:26:53;;;;;;;;;;;;;;;;;;2040826;29;19919;-79
2022/04/04 05:28:03;;;;;;;;;;;;;;;;;;;;;
2022/04/04 05:29:07;;;;;;;;;;;;;;;;;;2073692;28;20377;-78
2022/04/04 05:30:14;;;;;;;;;;;;;;;;;;2065568;28;19922;-77
2022/04/04 05:31:44;;;;;;;;;;;;;;;;;;2058644;28;19914;-77
2022/04/04 05:32:55;;;;;;;;;;;;;;;;;;2077728;28;20006;-78
2022/04/04 05:34:36;;;;;;;;;;;;;;;;;;2073708;28;20194;-79
2022/04/04 05:35:40;;;;;;;;;;;;;;;;;;2065033;28;19914;-78
2022/04/04 05:36:40;;;;;;;;;;;;;;;;;;2073578;28;19917;-78
2022/04/04 05:37:41;;;;;;;;;;;;;;;;;;2073588;28;20252;-78
2022/04/04 05:38:41;;;;;;;;;;;;;;;;;;2073523;28;19914;-77
2022/04/04 05:39:41;;;;;;;;;;;;;;;;;;2082455;28;19913;-77
2022/04/04 05:40:42;;;;;;;;;;;;;;;;;;2082156;28;19924;-77
2022/04/04 05:41:42;;;;;;;;;;;;;;;;;;2073566;28;19913;-77
2022/04/04 05:42:42;;;;;;;;;;;;;;;;;;2073576;28;19914;-77
2022/04/04 05:43:44;;;;;;;;;;;;;;;;;;2082197;28;19924;-78
2022/04/04 05:44:44;;;;;;;;;;;;;;;;;;2073563;28;19961;-78
2022/04/04 05:45:47;;;;;;;;;;;;;;;;;;2065400;28;20089;-77
2022/04/04 05:46:48;;;;;;;;;;;;;;;;;;2073774;28;19933;-78
2022/04/04 05:47:48;;;;;;;;;;;;;;;;;;2073513;28;19922;-77
2022/04/04 05:48:49;;;;;;;;;;;;;;;;;;2065465;28;19925;-77
2022/04/04 05:49:49;;;;;;;;;;;;;;;;;;2065430;28;20283;-77
2022/04/04 05:50:51;;;;;;;;;;;;;;;;;;2065328;28;20033;-76
2022/04/04 05:51:52;;;;;;;;;;;;;;;;;;2073848;28;19925;-76
2022/04/04 05:52:52;;;;;;;;;;;;;;;;;;2082302;28;19963;-77
2022/04/04 05:53:54;;;;;;;;;;;;;;;;;;2073519;28;19924;-76
2022/04/04 05:54:57;;;;;;;;;;;;;;;;;;2073833;28;19921;-76
2022/04/04 05:55:57;;;;;;;;;;;;;;;;;;2082121;28;20491;-77
2022/04/04 05:56:58;;;;;;;;;;;;;;;;;;2082129;28;20003;-77
2022/04/04 05:58:01;;;;;;;;;;;;;;;;;;2073247;28;20140;-77
2022/04/04 05:59:01;;;;;;;;;;;;;;;;;;2065737;28;20000;-77
2022/04/04 06:00:13;;;;;;;;;;;;;;;;;;2065338;28;19943;-78
2022/04/04 06:01:14;;;;;;;;;;;;;;;;;;2066444;28;19924;-77
2022/04/04 06:02:14;;;;;;;;;;;;;;;;;;2073529;28;19914;-79
2022/04/04 06:03:15;;;;;;;;;;;;;;;;;;2081998;28;19917;-78
2022/04/04 06:04:15;;;;;;;;;;;;;;;;;;2082366;28;19925;-78
2022/04/04 06:05:15;;;;;;;;;;;;;;;;;;2082117;28;19917;-78
2022/04/04 06:06:15;;;;;;;;;;;;;;;;;;2081675;28;19966;-78
2022/04/04 06:07:16;;;;;;;;;;;;;;;;;;2081386;28;20354;-77
2022/04/04 06:08:17;;;;;;;;;;;;;;;;;;2073330;28;19913;-77
2022/04/04 06:09:17;;;;;;;;;;;;;;;;;;2073512;28;19965;-78
2022/04/04 06:10:18;;;;;;;;;;;;;;;;;;2081873;28;19927;-79
2022/04/04 06:11:20;;;;;;;;;;;;;;;;;;2073374;28;20374;-78
2022/04/04 06:12:20;;;;;;;;;;;;;;;;;;2073774;28;20354;-79
2022/04/04 06:13:21;;;;;;;;;;;;;;;;;;2081977;28;19913;-78
2022/04/04 06:14:21;;;;;;;;;;;;;;;;;;2073204;28;19939;-78
2022/04/04 06:15:21;;;;;;;;;;;;;;;;;;2073292;28;19952;-79
2022/04/04 06:16:25;;;;;;;;;;;;;;;;;;2073124;28;20134;-80
2022/04/04 06:17:25;;;;;;;;;;;;;;;;;;2073856;28;19917;-79
2022/04/04 06:18:26;;;;;;;;;;;;;;;;;;2081820;28;20330;-79
2022/04/04 06:19:28;;;;;;;;;;;;;;;;;;2081986;28;19913;-78
2022/04/04 06:20:28;;;;;;;;;;;;;;;;;;2081851;28;19917;-78
2022/04/04 06:21:31;;;;;;;;;;;;;;;;;;2081910;28;19913;-79
2022/04/04 06:22:38;;;;;;;;;;;;;;;;;;2082032;28;19913;-78
2022/04/04 06:23:38;;;;;;;;;;;;;;;;;;2082045;28;20048;-79
2022/04/04 06:24:38;;;;;;;;;;;;;;;;;;2081850;28;19924;-79
2022/04/04 06:25:39;;;;;;;;;;;;;;;;;;2081909;28;19940;-79
2022/04/04 06:26:40;;;;;;;;;;;;;;;;;;2081698;28;20325;-79
2022/04/04 06:27:41;;;;;;;;;;;;;;;;;;2081942;28;19916;-80
2022/04/04 06:28:44;;;;;;;;;;;;;;;;;;2081789;28;19913;-79
2022/04/04 06:29:46;;;;;;;;;;;;;;;;;;2081855;28;19923;-79
2022/04/04 06:30:47;;;;;;;;;;;;;;;;;;2081843;28;20058;-79
2022/04/04 06:31:51;;;;;;;;;;;;;;;;;;2081890;28;19935;-79
2022/04/04 06:32:54;;;;;;;;;;;;;;;;;;2081804;28;20406;-79
2022/04/04 06:33:54;;;;;;;;;;;;;;;;;;2081971;28;19917;-80
2022/04/04 06:34:54;;;;;;;;;;;;;;;;;;2081692;28;19917;-79
2022/04/04 06:35:55;;;;;;;;;;;;;;;;;;2081796;28;19913;-80
2022/04/04 06:36:56;;;;;;;;;;;;;;;;;;2081672;28;20354;-79
2022/04/04 06:38:02;;;;;;;;;;;;;;;;;;2081641;28;19921;-80
2022/04/04 06:39:02;;;;;;;;;;;;;;;;;;2081513;28;19913;-78
2022/04/04 06:40:03;;;;;;;;;;;;;;;;;;2081706;28;19910;-80
2022/04/04 06:41:04;;;;;;;;;;;;;;;;;;2073022;28;19924;-78
2022/04/04 06:42:05;;;;;;;;;;;;;;;;;;2073149;28;19914;-78
2022/04/04 06:43:05;;;;;;;;;;;;;;;;;;2081711;28;19924;-79
2022/04/04 06:44:05;;;;;;;;;;;;;;;;;;2081766;28;19917;-79
2022/04/04 06:45:07;;;;;;;;;;;;;;;;;;2081840;28;20263;-78
2022/04/04 06:46:11;;;;;;;;;;;;;;;;;;2073070;28;19913;-78
2022/04/04 06:47:13;;;;;;;;;;;;;;;;;;2073600;28;19924;-79
2022/04/04 06:48:14;;;;;;;;;;;;;;;;;;2072631;28;19924;-79
2022/04/04 06:49:14;;;;;;;;;;;;;;;;;;2073172;28;19921;-79
2022/04/04 06:50:14;;;;;;;;;;;;;;;;;;2081688;28;19960;-79
2022/04/04 06:51:18;;;;;;;;;;;;;;;;;;2073069;28;19913;-78
2022/04/04 06:52:21;;;;;;;;;;;;;;;;;;2073557;28;19941;-79
2022/04/04 06:53:21;;;;;;;;;;;;;;;;;;2073108;28;20370;-80
2022/04/04 06:54:22;;;;;;;;;;;;;;;;;;2073074;28;19913;-79
2022/04/04 06:55:35;;;;;;;;;;;;;;;;;;;;;
2022/04/04 06:56:38;;;;;;;;;;;;;;;;;;2076869;28;19928;-80
2022/04/04 06:57:48;;;;;;;;;;;;;;;;;;;;;
2022/04/04 06:58:52;;;;;;;;;;;;;;;;;;2079957;28;19917;-80
2022/04/04 06:59:53;;;;;;;;;;;;;;;;;;2072658;28;19914;-80
2022/04/04 07:00:56;;;;;;;;;;;;;;;;;;2073076;28;19948;-79
2022/04/04 07:01:56;;;;;;;;;;;;;;;;;;2081620;28;20004;-77
2022/04/04 07:03:08;;;;;;;;;;;;;;;;;;2081715;28;19920;-77
2022/04/04 07:04:12;;;;;;;;;;;;;;;;;;2073014;28;19913;-79
2022/04/04 07:05:12;;;;;;;;;;;;;;;;;;2073505;28;19913;-79
2022/04/04 07:06:23;;;;;;;;;;;;;;;;;;2081560;28;19913;-79
2022/04/04 07:07:24;;;;;;;;;;;;;;;;;;2084337;28;19913;-78
2022/04/04 07:08:34;;;;;;;;;;;;;;;;;;2081572;28;19913;-77
2022/04/04 07:09:36;;;;;;;;;;;;;;;;;;2072942;28;19913;-78
2022/04/04 07:10:42;;;;;;;;;;;;;;;;;;2073179;28;19913;-79
2022/04/04 07:11:47;;;;;;;;;;;;;;;;;;2084275;28;19924;-79
2022/04/04 07:12:50;;;;;;;;;;;;;;;;;;2081637;28;19924;-78
2022/04/04 07:13:52;;;;;;;;;;;;;;;;;;2072882;28;19975;-79